createdAt,value
2019-04-22T00:02:26.684Z,6.17
2019-04-22T00:05:12.235Z,13.10
2019-04-22T00:08:00.366Z,11.43
2019-04-22T00:10:32.657Z,9.80
2019-04-22T00:13:11.575Z,13.33
2019-04-22T00:15:32.309Z,13.33
2019-04-22T00:18:16.464Z,8.73
2019-04-22T00:20:42.330Z,9.70
2019-04-22T00:23:18.690Z,11.63
2019-04-22T00:25:55.858Z,11.27
2019-04-22T00:28:29.200Z,7.43
2019-04-22T00:31:06.085Z,9.60
2019-04-22T00:33:34.935Z,7.37
2019-04-22T00:36:08.701Z,8.30
2019-04-22T00:38:44.245Z,12.07
2019-04-22T00:41:15.230Z,12.27
2019-04-22T00:43:49.223Z,15.07
2019-04-22T00:46:25.270Z,11.17
2019-04-22T00:49:18.964Z,20.97
2019-04-22T00:51:29.054Z,14.00
2019-04-22T00:54:03.379Z,11.13
2019-04-22T00:56:39.481Z,9.50
2019-04-22T00:59:11.468Z,13.08
2019-04-22T01:01:39.799Z,10.93
2019-04-22T01:04:21.466Z,13.17
2019-04-22T01:06:47.304Z,22.83
2019-04-22T01:09:17.499Z,8.37
2019-04-22T01:11:54.002Z,11.60
2019-04-22T01:14:28.328Z,14.47
2019-04-22T01:17:02.997Z,11.27
2019-04-22T01:19:38.765Z,13.60
2019-04-22T01:22:13.140Z,14.90
2019-04-22T01:24:40.321Z,14.97
2019-04-22T01:27:10.137Z,11.03
2019-04-22T01:29:42.434Z,13.10
2019-04-22T01:32:15.298Z,9.00
2019-04-22T01:34:56.541Z,16.53
2019-04-22T01:37:38.470Z,13.30
2019-04-22T01:40:16.674Z,12.00
2019-04-22T01:42:48.515Z,14.83
2019-04-22T01:45:20.554Z,8.63
2019-04-22T01:47:53.245Z,8.57
2019-04-22T01:50:26.512Z,15.23
2019-04-22T01:53:07.865Z,9.70
2019-04-22T01:55:32.359Z,12.10
2019-04-22T01:57:59.622Z,11.47
2019-04-22T02:00:39.912Z,14.97
2019-04-22T02:03:10.294Z,14.50
2019-04-22T02:05:46.887Z,12.67
2019-04-22T02:08:28.379Z,15.13
2019-04-22T02:13:26.238Z,15.83
2019-04-22T02:15:58.781Z,7.70
2019-04-22T02:18:35.935Z,17.70
2019-04-22T02:21:04.521Z,13.50
2019-04-22T02:26:07.645Z,14.10
2019-04-22T02:31:25.792Z,11.47
2019-04-22T02:36:33.945Z,19.60
2019-04-22T02:39:03.954Z,21.40
2019-04-22T02:41:31.538Z,18.17
2019-04-22T02:44:12.278Z,15.97
2019-04-22T02:46:54.707Z,13.70
2019-04-22T02:51:38.694Z,17.10
2019-04-22T02:56:48.704Z,14.10
2019-04-22T02:59:26.294Z,16.67
2019-04-22T03:01:54.002Z,18.70
2019-04-22T03:04:30.010Z,19.53
2019-04-22T03:06:58.833Z,15.37
2019-04-22T03:19:59.259Z,13.20
2019-04-22T03:22:24.220Z,20.00
2019-04-22T03:25:14.091Z,15.77
2019-04-22T03:27:25.464Z,19.60
2019-04-22T03:30:41.500Z,28.87
2019-04-22T03:37:56.376Z,17.50
2019-04-22T03:40:30.390Z,16.07
2019-04-22T03:50:32.452Z,15.17
2019-04-22T03:58:15.638Z,12.40
2019-04-22T04:05:52.499Z,17.70
2019-04-22T04:10:53.379Z,12.70
2019-04-22T04:13:34.065Z,16.17
2019-04-22T04:16:04.048Z,14.03
2019-04-22T04:18:46.758Z,13.30
2019-04-22T04:24:01.154Z,14.57
2019-04-22T04:26:26.471Z,10.30
2019-04-22T04:39:21.431Z,11.33
2019-04-22T04:41:42.125Z,17.10
2019-04-22T04:44:43.647Z,9.13
2019-04-22T04:46:53.925Z,16.43
2019-04-22T04:49:23.867Z,14.80
2019-04-22T04:51:56.036Z,17.67
2019-04-22T04:59:33.284Z,11.37
2019-04-22T05:02:06.435Z,14.60
2019-04-22T05:04:46.474Z,21.13
2019-04-22T05:07:18.846Z,23.60
2019-04-22T05:09:38.584Z,20.57
2019-04-22T05:14:52.556Z,15.27
2019-04-22T05:17:18.659Z,15.40
2019-04-22T05:19:50.245Z,14.43
2019-04-22T05:22:23.177Z,17.13
2019-04-22T05:24:53.846Z,22.53
2019-04-22T05:27:34.658Z,21.50
2019-04-22T05:30:23.487Z,17.40
2019-04-22T05:35:06.935Z,28.43
2019-04-22T05:37:45.738Z,20.70
2019-04-22T05:40:16.674Z,22.80
2019-04-22T05:42:48.324Z,19.77
2019-04-22T05:47:52.308Z,20.80
2019-04-22T05:50:47.409Z,21.63
2019-04-22T05:53:05.178Z,16.70
2019-04-22T05:55:36.330Z,23.10
2019-04-22T05:58:08.980Z,21.47
2019-04-22T06:01:12.529Z,54.70
2019-04-22T06:03:18.478Z,26.17
2019-04-22T06:05:47.235Z,19.87
2019-04-22T06:08:23.744Z,32.27
2019-04-22T06:11:00.457Z,21.80
2019-04-22T06:13:30.415Z,25.90
2019-04-22T06:16:12.469Z,22.53
2019-04-22T06:18:38.561Z,22.20
2019-04-22T06:23:46.623Z,27.90
2019-04-22T06:26:30.960Z,22.60
2019-04-22T06:28:54.865Z,17.37
2019-04-22T06:31:38.656Z,19.93
2019-04-22T06:34:05.994Z,28.23
2019-04-22T06:36:37.754Z,19.40
2019-04-22T06:39:13.259Z,21.93
2019-04-22T06:41:40.270Z,26.53
2019-04-22T06:46:47.207Z,25.50
2019-04-22T06:49:27.335Z,27.93
2019-04-22T06:51:53.742Z,24.60
2019-04-22T06:54:50.518Z,27.33
2019-04-22T06:57:02.443Z,25.07
2019-04-22T06:59:38.027Z,26.73
2019-04-22T07:02:10.081Z,26.42
2019-04-22T07:04:45.018Z,15.97
2019-04-22T07:07:12.285Z,15.50
2019-04-22T07:09:46.557Z,17.53
2019-04-22T07:12:27.150Z,17.40
2019-04-22T07:14:55.395Z,31.77
2019-04-22T07:17:32.798Z,18.77
2019-04-22T07:19:58.462Z,19.63
2019-04-22T07:22:45.511Z,21.13
2019-04-22T07:25:04.347Z,15.40
2019-04-22T07:27:34.616Z,23.10
2019-04-22T07:30:15.203Z,13.17
2019-04-22T07:33:04.522Z,20.00
2019-04-22T07:35:23.478Z,16.17
2019-04-22T07:37:48.573Z,16.10
2019-04-22T07:40:26.978Z,14.67
2019-04-22T07:43:09.847Z,15.07
2019-04-22T07:45:36.218Z,16.73
2019-04-22T07:48:12.996Z,14.10
2019-04-22T07:50:49.338Z,15.70
2019-04-22T07:53:10.681Z,12.70
2019-04-22T07:55:45.369Z,12.13
2019-04-22T07:58:18.631Z,12.10
2019-04-22T08:01:09.065Z,12.10
2019-04-22T08:03:31.967Z,14.03
2019-04-22T08:06:05.298Z,16.03
2019-04-22T08:08:28.776Z,16.33
2019-04-22T08:11:11.770Z,20.23
2019-04-22T08:13:38.249Z,15.57
2019-04-22T08:16:10.371Z,19.27
2019-04-22T08:18:39.557Z,21.03
2019-04-22T08:21:13.681Z,14.30
2019-04-22T08:23:54.099Z,18.93
2019-04-22T08:26:19.338Z,7.67
2019-04-22T08:28:59.073Z,15.63
2019-04-22T08:31:28.730Z,12.37
2019-04-22T08:34:02.077Z,20.73
2019-04-22T08:36:32.272Z,13.87
2019-04-22T08:39:11.988Z,16.37
2019-04-22T08:41:37.425Z,17.23
2019-04-22T08:44:07.908Z,17.90
2019-04-22T08:46:48.665Z,20.33
2019-04-22T08:49:30.730Z,24.83
2019-04-22T08:51:56.810Z,26.50
2019-04-22T08:54:31.258Z,13.90
2019-04-22T08:57:06.653Z,20.43
2019-04-22T08:59:36.910Z,28.10
2019-04-22T09:02:12.060Z,27.53
2019-04-22T09:04:45.027Z,28.03
2019-04-22T09:10:05.230Z,25.47
2019-04-22T09:12:23.894Z,25.63
2019-04-22T09:15:03.953Z,32.73
2019-04-22T09:17:40.260Z,17.03
2019-04-22T09:20:16.825Z,38.53
2019-04-22T09:22:47.169Z,26.40
2019-04-22T09:25:17.027Z,24.90
2019-04-22T09:27:49.871Z,23.20
2019-04-22T09:30:49.536Z,21.27
2019-04-22T09:33:21.032Z,22.70
2019-04-22T09:35:52.378Z,20.23
2019-04-22T09:38:33.199Z,19.13
2019-04-22T09:40:52.692Z,28.67
2019-04-22T09:43:32.183Z,28.37
2019-04-22T09:45:57.484Z,25.90
2019-04-22T09:48:37.578Z,36.23
2019-04-22T09:51:05.662Z,36.37
2019-04-22T09:53:47.244Z,30.33
2019-04-22T09:56:10.160Z,30.55
2019-04-22T09:58:39.829Z,26.80
2019-04-22T10:01:22.747Z,27.70
2019-04-22T10:03:56.468Z,29.07
2019-04-22T10:06:27.819Z,31.87
2019-04-22T10:09:12.689Z,32.17
2019-04-22T10:14:09.753Z,38.10
2019-04-22T10:16:39.450Z,31.80
2019-04-22T10:19:11.427Z,64.87
2019-04-22T10:21:50.021Z,33.77
2019-04-22T10:24:16.746Z,28.47
2019-04-22T10:29:41.626Z,28.10
2019-04-22T10:31:55.531Z,21.53
2019-04-22T10:34:16.715Z,29.17
2019-04-22T10:36:37.846Z,22.17
2019-04-22T10:39:10.757Z,33.03
2019-04-22T10:41:42.348Z,29.27
2019-04-22T10:44:13.424Z,27.93
2019-04-22T10:46:46.181Z,31.60
2019-04-22T10:49:18.225Z,21.80
2019-04-22T10:51:50.772Z,30.27
2019-04-22T10:54:23.248Z,53.00
2019-04-22T10:56:55.092Z,25.43
2019-04-22T10:59:26.906Z,26.23
2019-04-22T11:01:59.285Z,36.83
2019-04-22T11:04:32.154Z,50.13
2019-04-22T11:07:07.280Z,31.07
2019-04-22T11:09:47.701Z,32.70
2019-04-22T11:12:16.721Z,26.43
2019-04-22T11:14:43.327Z,34.23
2019-04-22T11:17:15.634Z,28.07
2019-04-22T11:19:47.876Z,32.00
2019-04-22T11:22:25.550Z,26.50
2019-04-22T11:24:53.313Z,30.63
2019-04-22T11:27:25.394Z,26.27
2019-04-22T11:29:57.428Z,31.93
2019-04-22T11:32:29.028Z,22.50
2019-04-22T11:35:01.505Z,33.40
2019-04-22T11:37:36.600Z,23.47
2019-04-22T11:40:18.880Z,44.17
2019-04-22T11:42:42.092Z,36.63
2019-04-22T11:45:13.556Z,33.00
2019-04-22T11:47:45.568Z,29.67
2019-04-22T11:50:17.747Z,32.33
2019-04-22T11:52:48.982Z,26.17
2019-04-22T11:55:22.374Z,26.53
2019-04-22T11:57:56.199Z,46.57
2019-04-22T12:00:37.001Z,32.53
2019-04-22T12:03:09.290Z,29.03
2019-04-22T12:05:41.691Z,37.73
2019-04-22T12:08:13.223Z,26.83
2019-04-22T12:10:51.590Z,31.33
2019-04-22T12:13:17.858Z,36.50
2019-04-22T12:15:49.246Z,27.03
2019-04-22T12:18:21.207Z,24.30
2019-04-22T12:20:53.185Z,30.93
2019-04-22T12:23:25.161Z,36.60
2019-04-22T12:26:03.496Z,28.50
2019-04-22T12:28:31.064Z,31.13
2019-04-22T12:31:03.690Z,34.03
2019-04-22T12:33:35.171Z,28.13
2019-04-22T12:36:08.498Z,39.47
2019-04-22T12:38:39.988Z,30.57
2019-04-22T12:41:12.215Z,30.47
2019-04-22T12:43:45.086Z,39.77
2019-04-22T12:46:16.439Z,25.20
2019-04-22T12:48:49.894Z,31.27
2019-04-22T12:51:21.006Z,25.60
2019-04-22T12:53:52.850Z,24.97
2019-04-22T12:56:23.968Z,22.17
2019-04-22T12:58:55.874Z,32.83
2019-04-22T13:01:28.989Z,28.53
2019-04-22T13:04:05.719Z,32.07
2019-04-22T13:06:35.415Z,24.03
2019-04-22T13:09:10.519Z,38.00
2019-04-22T13:11:42.695Z,19.60
2019-04-22T13:14:16.722Z,19.30
2019-04-22T13:16:49.087Z,27.20
2019-04-22T13:19:22.594Z,28.97
2019-04-22T13:21:54.418Z,30.33
2019-04-22T13:24:26.074Z,29.47
2019-04-22T13:26:58.993Z,31.00
2019-04-22T13:29:31.099Z,33.50
2019-04-22T13:32:02.546Z,40.00
2019-04-22T13:34:56.676Z,29.63
2019-04-22T13:37:25.307Z,24.57
2019-04-22T13:39:56.920Z,32.63
2019-04-22T13:42:29.726Z,25.60
2019-04-22T13:45:01.888Z,35.10
2019-04-22T13:47:50.504Z,19.30
2019-04-22T13:53:18.296Z,43.13
2019-04-22T13:54:01.902Z,34.67
2019-04-22T13:55:45.469Z,35.10
2019-04-22T13:57:58.275Z,40.77
2019-04-22T14:00:22.565Z,28.47
2019-04-22T14:03:26.682Z,28.93
2019-04-22T14:06:00.681Z,29.43
2019-04-22T14:08:33.081Z,22.03
2019-04-22T14:11:16.826Z,30.37
2019-04-22T14:13:37.768Z,34.37
2019-04-22T14:16:09.079Z,31.07
2019-04-22T14:18:41.503Z,18.93
2019-04-22T14:21:14.798Z,27.33
2019-04-22T14:23:48.665Z,18.37
2019-04-22T14:26:20.137Z,30.93
2019-04-22T14:28:51.044Z,24.87
2019-04-22T14:31:22.396Z,32.97
2019-04-22T14:34:01.748Z,28.53
2019-04-22T14:36:30.373Z,24.13
2019-04-22T14:39:01.981Z,29.10
2019-04-22T14:41:49.731Z,29.33
2019-04-22T14:45:13.487Z,22.20
2019-04-22T14:47:09.313Z,23.93
2019-04-22T14:49:40.114Z,34.47
2019-04-22T14:52:13.302Z,33.17
2019-04-22T14:54:34.606Z,26.40
2019-04-22T14:56:54.150Z,26.40
2019-04-22T14:59:26.892Z,25.43
2019-04-22T15:01:58.806Z,23.27
2019-04-22T15:04:33.565Z,32.57
2019-04-22T15:07:05.471Z,25.37
2019-04-22T15:09:37.809Z,25.70
2019-04-22T15:12:18.225Z,30.47
2019-04-22T15:14:43.598Z,25.33
2019-04-22T15:17:29.170Z,28.10
2019-04-22T15:20:16.061Z,32.70
2019-04-22T15:22:48.380Z,24.97
2019-04-22T15:25:20.679Z,45.53
2019-04-22T15:27:53.302Z,33.57
2019-04-22T15:30:25.534Z,28.30
2019-04-22T15:32:57.399Z,29.70
2019-04-22T15:35:29.175Z,33.73
2019-04-22T15:38:01.516Z,30.00
2019-04-22T15:40:34.436Z,28.23
2019-04-22T15:43:06.596Z,19.03
2019-04-22T15:45:39.075Z,34.77
2019-04-22T15:48:11.767Z,33.50
2019-04-22T15:50:42.913Z,22.93
2019-04-22T15:53:13.906Z,28.63
2019-04-22T15:55:45.019Z,32.97
2019-04-22T15:58:17.508Z,30.87
2019-04-22T16:00:57.652Z,38.53
2019-04-22T16:03:22.610Z,33.23
2019-04-22T16:05:54.476Z,36.50
2019-04-22T16:08:29.040Z,35.33
2019-04-22T16:11:01.694Z,25.33
2019-04-22T16:13:36.129Z,34.73
2019-04-22T16:16:06.926Z,24.40
2019-04-22T16:18:40.116Z,31.37
2019-04-22T16:21:13.096Z,20.43
2019-04-22T16:24:20.389Z,21.93
2019-04-22T16:27:02.330Z,26.80
2019-04-22T16:29:34.085Z,24.00
2019-04-22T16:32:05.585Z,25.97
2019-04-22T16:34:38.160Z,29.90
2019-04-22T16:37:10.558Z,40.67
2019-04-22T16:39:43.706Z,31.50
2019-04-22T16:42:27.684Z,35.60
2019-04-22T16:44:49.416Z,41.30
2019-04-22T16:47:21.697Z,26.87
2019-04-22T16:49:55.489Z,36.07
2019-04-22T16:52:28.115Z,33.10
2019-04-22T16:55:00.981Z,22.93
2019-04-22T16:57:33.727Z,36.93
2019-04-22T17:00:08.902Z,25.63
2019-04-22T17:02:58.701Z,27.30
2019-04-22T17:05:49.853Z,23.83
2019-04-22T17:08:22.354Z,23.67
2019-04-22T17:10:53.744Z,46.97
2019-04-22T17:13:30.260Z,31.33
2019-04-22T17:16:00.851Z,26.30
2019-04-22T17:18:33.072Z,25.57
2019-04-22T17:21:06.786Z,27.73
2019-04-22T17:23:38.015Z,35.03
2019-04-22T17:26:10.662Z,22.80
2019-04-22T17:28:41.789Z,24.30
2019-04-22T17:31:14.209Z,30.37
2019-04-22T17:33:46.701Z,28.03
2019-04-22T17:36:20.242Z,24.13
2019-04-22T17:39:02.785Z,34.47
2019-04-22T17:41:38.572Z,29.20
2019-04-22T17:44:24.955Z,28.30
2019-04-22T17:46:53.358Z,37.83
2019-04-22T17:49:47.591Z,31.97
2019-04-22T17:52:24.981Z,31.50
2019-04-22T17:54:51.563Z,21.93
2019-04-22T17:57:23.827Z,22.53
2019-04-22T17:59:54.802Z,19.87
2019-04-22T18:02:26.697Z,22.77
2019-04-22T18:04:51.794Z,30.07
2019-04-22T18:07:38.604Z,25.53
2019-04-22T18:10:28.827Z,32.27
2019-04-22T18:12:54.860Z,33.30
2019-04-22T18:15:19.131Z,41.07
2019-04-22T18:17:54.243Z,25.73
2019-04-22T18:20:18.017Z,30.03
2019-04-22T18:22:45.921Z,30.00
2019-04-22T18:25:22.367Z,28.97
2019-04-22T18:30:28.779Z,20.13
2019-04-22T18:33:07.318Z,23.13
2019-04-22T18:35:41.484Z,29.13
2019-04-22T18:38:28.305Z,34.30
2019-04-22T18:40:47.073Z,29.93
2019-04-22T18:43:27.734Z,21.37
2019-04-22T18:46:00.207Z,24.80
2019-04-22T18:48:22.069Z,30.93
2019-04-22T18:51:17.175Z,25.17
2019-04-22T18:54:05.072Z,30.33
2019-04-22T18:56:48.024Z,33.43
2019-04-22T18:59:08.247Z,23.33
2019-04-22T19:01:30.136Z,20.73
2019-04-22T19:04:11.566Z,28.23
2019-04-22T19:06:55.685Z,22.03
2019-04-22T19:09:35.001Z,27.33
2019-04-22T19:12:30.720Z,25.83
2019-04-22T19:14:45.543Z,28.60
2019-04-22T19:17:28.079Z,29.77
2019-04-22T19:20:02.848Z,26.37
2019-04-22T19:22:26.568Z,30.83
2019-04-22T19:24:54.671Z,21.40
2019-04-22T19:27:34.623Z,26.90
2019-04-22T19:30:14.122Z,29.70
2019-04-22T19:32:40.391Z,19.53
2019-04-22T19:35:11.568Z,26.23
2019-04-22T19:37:42.474Z,25.57
2019-04-22T19:40:26.063Z,29.32
2019-04-22T19:42:56.226Z,33.10
2019-04-22T19:45:24.023Z,25.70
2019-04-22T19:48:03.818Z,35.63
2019-04-22T19:50:38.014Z,32.60
2019-04-22T19:53:04.953Z,28.60
2019-04-22T19:55:34.937Z,30.93
2019-04-22T19:58:11.983Z,27.03
2019-04-22T20:01:02.445Z,25.73
2019-04-22T20:04:13.707Z,25.77
2019-04-22T20:06:38.187Z,27.40
2019-04-22T20:09:13.969Z,33.83
2019-04-22T20:11:47.647Z,29.27
2019-04-22T20:14:19.966Z,57.30
2019-04-22T20:16:46.897Z,28.50
2019-04-22T20:19:33.869Z,33.13
2019-04-22T20:21:59.573Z,31.20
2019-04-22T20:24:14.511Z,41.80
2019-04-22T20:27:07.439Z,24.27
2019-04-22T20:29:54.749Z,22.93
2019-04-22T20:32:10.967Z,30.00
2019-04-22T20:34:47.573Z,31.00
2019-04-22T20:37:23.612Z,28.80
2019-04-22T20:39:46.844Z,26.00
2019-04-22T20:42:33.176Z,24.03
2019-04-22T20:44:57.085Z,23.40
2019-04-22T20:47:21.996Z,25.90
2019-04-22T20:49:59.559Z,25.80
2019-04-22T20:52:38.480Z,23.20
2019-04-22T20:55:02.585Z,21.87
2019-04-22T20:57:40.497Z,21.57
2019-04-22T21:00:06.097Z,16.47
2019-04-22T21:02:36.222Z,13.87
2019-04-22T21:05:03.203Z,17.53
2019-04-22T21:07:48.363Z,18.53
2019-04-22T21:10:18.421Z,19.23
2019-04-22T21:12:50.039Z,21.30
2019-04-22T21:15:31.143Z,20.00
2019-04-22T21:18:04.373Z,21.00
2019-04-22T21:20:39.227Z,22.70
2019-04-22T21:23:07.985Z,23.13
2019-04-22T21:25:34.978Z,23.80
2019-04-22T21:28:14.420Z,22.57
2019-04-22T21:30:49.218Z,22.07
2019-04-22T21:33:17.696Z,24.30
2019-04-22T21:38:32.828Z,19.37
2019-04-22T21:41:03.484Z,27.73
2019-04-22T21:43:35.841Z,20.90
2019-04-22T21:46:13.419Z,24.30
2019-04-22T21:48:44.660Z,22.93
2019-04-22T21:51:22.641Z,25.63
2019-04-22T21:54:12.293Z,24.20
2019-04-22T21:56:34.876Z,22.67
2019-04-22T21:59:07.830Z,25.80
2019-04-22T22:01:53.985Z,20.27
2019-04-22T22:04:22.077Z,23.07
2019-04-22T22:06:40.962Z,38.40
2019-04-22T22:09:31.225Z,26.23
2019-04-22T22:11:59.373Z,30.60
2019-04-22T22:14:34.838Z,18.43
2019-04-22T22:17:02.252Z,26.87
2019-04-22T22:19:43.561Z,22.83
2019-04-22T22:22:28.499Z,38.53
2019-04-22T22:24:50.120Z,27.83
2019-04-22T22:27:20.467Z,51.43
2019-04-22T22:32:32.048Z,24.63
2019-04-22T22:34:58.788Z,38.30
2019-04-22T22:37:22.839Z,43.93
2019-04-22T22:39:56.720Z,39.23
2019-04-22T22:42:25.700Z,40.10
2019-04-22T22:45:00.647Z,32.70
2019-04-22T22:47:40.960Z,42.00
2019-04-22T22:50:15.955Z,31.20
2019-04-22T22:53:02.366Z,32.87
2019-04-22T22:55:22.345Z,34.77
2019-04-22T22:57:58.385Z,35.23
2019-04-22T23:00:24.379Z,35.23
2019-04-22T23:03:38.090Z,26.43
2019-04-22T23:05:48.279Z,38.70
2019-04-22T23:08:18.258Z,34.87
2019-04-22T23:10:58.820Z,36.93
2019-04-22T23:13:22.033Z,33.03
2019-04-22T23:15:44.246Z,25.93
2019-04-22T23:18:03.835Z,31.03
2019-04-22T23:20:41.439Z,29.27
2019-04-22T23:23:30.823Z,29.67
2019-04-22T23:26:00.654Z,48.30
2019-04-22T23:28:47.128Z,36.93
2019-04-22T23:31:38.638Z,39.97
2019-04-22T23:34:18.671Z,33.60
2019-04-22T23:36:56.437Z,32.77
2019-04-22T23:39:41.676Z,26.70
2019-04-22T23:42:15.956Z,25.03
2019-04-22T23:44:41.945Z,26.90
2019-04-22T23:47:23.832Z,27.60
2019-04-22T23:50:01.122Z,21.47
2019-04-22T23:52:47.959Z,23.70
2019-04-22T23:55:21.586Z,23.20
2019-04-22T23:57:56.780Z,27.50
